Time;durP1;ratioP1;P1;durP2;ratioP2;P2;SDS_P1;SDS_P2;PMS_P1;PMS_P2;Temp;Humidity;BMP_temperature;BMP_pressure;BME280_temperature;BME280_humidity;BME280_pressure;Samples;Min_cycle;Max_cycle;Signal;HPM_P1;HPM_P2
2022/01/14 00:02:12;;;;;;;14.50;7.40;;;;;;;2.85;67.90;99166.97;5974291;23;20258;-88
2022/01/14 00:04:38;;;;;;;10.30;4.65;;;;;;;2.93;68.68;99176.50;5970671;23;20333;-88
2022/01/14 00:07:06;;;;;;;8.30;3.83;;;;;;;3.01;68.72;99174.03;5973460;23;20181;-88
2022/01/14 00:09:34;;;;;;;6.00;3.00;;;;;;;2.88;68.42;99152.97;5973314;23;20074;-88
2022/01/14 00:12:03;;;;;;;6.95;3.17;;;;;;;2.99;68.74;99147.63;5973974;23;20298;-88
2022/01/14 00:14:39;;;;;;;7.40;3.08;;;;;;;2.90;68.29;99135.66;5974499;23;20226;-88
2022/01/14 00:17:06;;;;;;;5.53;2.80;;;;;;;3.01;68.28;99140.56;6009305;23;20143;-88
2022/01/14 00:19:32;;;;;;;7.93;3.50;;;;;;;3.12;67.97;99153.22;6007525;23;20604;-88
2022/01/14 00:22:01;;;;;;;7.35;3.55;;;;;;;3.12;67.75;99150.66;5973939;23;20260;-88
2022/01/14 00:31:37;;;;;;;5.78;3.15;;;;;;;3.12;67.79;99145.50;5997642;23;20159;-88
2022/01/14 00:32:59;;;;;;;5.18;2.80;;;;;;;3.26;67.68;99157.06;6001084;23;20344;-88
2022/01/14 00:35:25;;;;;;;5.30;2.25;;;;;;;3.17;67.91;99148.44;6010356;23;20304;-88
2022/01/14 00:37:50;;;;;;;6.68;2.60;;;;;;;3.25;67.45;99152.03;5972616;23;20661;-88
2022/01/14 00:40:16;;;;;;;4.35;2.30;;;;;;;3.23;67.67;99144.47;6006812;23;20708;-88
2022/01/14 00:42:41;;;;;;;7.28;2.45;;;;;;;3.24;67.66;99155.56;5973069;23;20246;-88
2022/01/14 00:45:07;;;;;;;6.38;3.05;;;;;;;3.17;67.32;99151.03;6006709;23;20246;-88
2022/01/14 00:47:37;;;;;;;7.30;2.83;;;;;;;3.15;67.39;99155.53;5973005;23;20303;-88
2022/01/14 00:50:04;;;;;;;5.57;2.92;;;;;;;3.04;67.39;99135.13;5972686;23;20225;-88
2022/01/14 00:52:29;;;;;;;5.90;2.67;;;;;;;3.09;67.74;99140.66;5972983;23;20798;-88
2022/01/14 00:54:55;;;;;;;4.40;2.35;;;;;;;3.08;67.53;99139.03;6006227;23;20147;-88
2022/01/14 00:59:14;;;;;;;5.72;2.38;;;;;;;3.11;67.97;99143.88;5972328;23;20079;-88
2022/01/14 01:00:12;;;;;;;7.65;3.47;;;;;;;2.97;67.77;99128.97;6001373;23;20087;-88
2022/01/14 01:02:37;;;;;;;5.40;3.10;;;;;;;2.96;67.47;99122.19;5972249;23;20181;-88
2022/01/14 01:05:03;;;;;;;5.50;3.42;;;;;;;3.05;67.61;99141.91;6002214;23;20064;-88
2022/01/14 01:07:28;;;;;;;5.68;2.75;;;;;;;2.94;67.29;99119.75;5972333;23;20559;-88
2022/01/14 01:09:54;;;;;;;7.05;3.47;;;;;;;3.03;66.76;99107.78;5996457;23;20163;-88
2022/01/14 01:15:16;;;;;;;2.85;1.30;;;;;;;3.33;66.29;99111.72;6017839;23;20233;-88
2022/01/14 01:17:42;;;;;;;5.25;1.42;;;;;;;3.55;66.05;99127.66;5973378;23;20171;-88
2022/01/14 01:20:18;;;;;;;3.13;1.50;;;;;;;3.55;65.34;99125.09;6000055;23;20095;-88
2022/01/14 01:22:45;;;;;;;5.07;2.58;;;;;;;3.52;64.96;99123.59;6012889;23;20144;-88
2022/01/14 01:25:12;;;;;;;6.53;3.50;;;;;;;3.37;65.29;99117.38;6025565;23;20094;-88
2022/01/14 01:27:40;;;;;;;7.18;3.35;;;;;;;3.23;65.78;99128.22;5978351;23;20198;-88
2022/01/14 01:30:16;;;;;;;7.30;3.85;;;;;;;3.04;66.16;99130.00;6011847;23;20221;-88
2022/01/14 01:32:48;;;;;;;9.43;4.40;;;;;;;2.85;66.23;99120.66;5980769;23;20267;-88
2022/01/14 01:35:15;;;;;;;6.80;2.83;;;;;;;2.91;66.86;99122.63;6036309;23;20106;-88
2022/01/14 01:37:40;;;;;;;3.13;2.00;;;;;;;2.90;67.26;99125.38;5978918;23;20575;-88
2022/01/14 01:40:07;;;;;;;4.00;2.10;;;;;;;2.87;67.07;99117.94;6036132;23;20186;-88
2022/01/14 01:42:32;;;;;;;4.78;1.50;;;;;;;2.90;67.19;99127.94;6002488;23;20064;-88
2022/01/14 01:45:01;;;;;;;6.15;1.77;;;;;;;2.86;67.16;99127.41;6035796;23;20167;-88
2022/01/14 01:47:27;;;;;;;4.72;1.73;;;;;;;2.89;67.79;99126.31;5978930;23;20661;-88
2022/01/14 01:49:53;;;;;;;4.32;1.45;;;;;;;2.92;67.74;99128.59;6001217;23;20225;-88
2022/01/14 01:52:19;;;;;;;3.97;1.80;;;;;;;2.95;67.55;99133.47;6002041;23;20680;-88
2022/01/14 01:54:44;;;;;;;5.07;1.45;;;;;;;2.90;67.11;99122.78;5977471;23;20202;-88
2022/01/14 01:57:09;;;;;;;9.88;2.30;;;;;;;2.92;67.92;99129.41;6001235;23;20079;-88
2022/01/14 01:59:35;;;;;;;5.53;2.10;;;;;;;2.89;67.72;99118.59;6008731;23;20287;-88
2022/01/14 02:02:01;;;;;;;4.50;2.58;;;;;;;2.84;67.89;99105.34;6003287;23;20555;-88
2022/01/14 02:04:27;;;;;;;8.15;3.28;;;;;;;2.96;67.36;99124.75;6032167;23;20183;-88
2022/01/14 02:06:54;;;;;;;6.82;2.55;;;;;;;2.88;67.24;99109.25;5976667;23;20314;-88
2022/01/14 02:09:21;;;;;;;5.72;2.70;;;;;;;2.96;67.79;99117.84;5977764;23;20241;-88
2022/01/14 02:11:46;;;;;;;3.50;2.33;;;;;;;2.99;67.71;99109.84;6002213;23;20256;-88
2022/01/14 02:14:27;;;;;;;5.78;2.13;;;;;;;3.08;67.31;99104.75;6010788;23;20262;-88
2022/01/14 02:22:54;;;;;;;3.75;2.00;;;;;;;3.11;65.99;99094.19;5974067;23;20239;-88
2022/01/14 02:25:30;;;;;;;6.18;2.83;;;;;;;3.22;66.20;99090.56;5983447;23;20692;-88
2022/01/14 02:28:01;;;;;;;4.07;1.77;;;;;;;2.99;66.62;99091.03;5984049;23;20171;-88
2022/01/14 02:30:29;;;;;;;4.28;1.95;;;;;;;3.05;66.43;99085.28;5949235;23;20175;-88
2022/01/14 02:32:54;;;;;;;4.68;2.15;;;;;;;2.95;66.62;99076.84;5949322;23;20168;-88
2022/01/14 02:35:20;;;;;;;5.10;3.00;;;;;;;2.92;66.83;99074.56;5982291;23;20195;-88
2022/01/14 02:37:45;;;;;;;6.05;2.05;;;;;;;2.87;67.16;99066.47;5982689;23;20258;-88
2022/01/14 02:40:11;;;;;;;2.13;1.05;;;;;;;2.89;67.20;99072.28;5949006;23;20256;-88
2022/01/14 02:42:36;;;;;;;3.88;1.60;;;;;;;2.93;67.68;99071.03;5972752;23;20161;-88
2022/01/14 02:45:06;;;;;;;5.15;1.90;;;;;;;3.09;66.55;99060.06;5972327;23;20195;-88
2022/01/14 02:47:31;;;;;;;6.18;2.28;;;;;;;3.10;66.78;99049.63;6006288;23;20235;-88
2022/01/14 02:49:57;;;;;;;5.00;1.77;;;;;;;3.25;66.26;99065.31;5948344;23;20231;-88
2022/01/14 02:52:30;;;;;;;4.95;1.77;;;;;;;3.31;65.66;99053.63;5948925;23;20176;-88
2022/01/14 02:55:14;;;;;;;5.22;2.17;;;;;;;3.38;65.53;99054.63;5950311;23;20183;-88
2022/01/14 02:57:43;;;;;;;6.65;2.30;;;;;;;3.28;65.69;99044.44;5976815;23;20176;-88
2022/01/14 03:00:09;;;;;;;6.57;2.88;;;;;;;3.23;65.75;99045.84;5948712;23;20161;-88
2022/01/14 03:02:35;;;;;;;8.20;3.53;;;;;;;3.30;65.91;99050.22;5951329;23;20532;-88
2022/01/14 03:05:01;;;;;;;7.22;3.67;;;;;;;3.22;64.78;99034.72;5979860;23;20650;-88
2022/01/14 03:07:27;;;;;;;5.90;3.13;;;;;;;3.26;64.67;99035.25;5950681;23;20172;-88
2022/01/14 03:09:52;;;;;;;5.07;2.67;;;;;;;3.25;65.12;99041.34;5985077;23;20107;-88
2022/01/14 03:12:18;;;;;;;5.20;2.80;;;;;;;3.24;65.38;99034.56;5974760;23;20267;-88
2022/01/14 03:14:43;;;;;;;7.22;5.13;;;;;;;3.16;64.93;99023.28;5983026;23;20215;-88
2022/01/14 03:17:08;;;;;;;6.82;3.55;;;;;;;3.16;64.34;99025.06;5950895;23;20251;-88
2022/01/14 03:19:34;;;;;;;6.63;3.67;;;;;;;3.00;64.59;99028.31;5950804;23;20259;-88
2022/01/14 03:27:09;;;;;;;5.78;3.00;;;;;;;2.70;65.64;99030.31;6011843;23;20668;-88
2022/01/14 03:29:34;;;;;;;6.38;2.67;;;;;;;2.58;65.92;99018.66;5988631;23;20262;-88
2022/01/14 03:32:00;;;;;;;4.63;2.55;;;;;;;2.63;66.37;99019.00;5988088;23;20607;-87
2022/01/14 03:34:26;;;;;;;6.35;2.80;;;;;;;2.61;66.51;99026.06;5953965;23;20572;-87
2022/01/14 03:36:51;;;;;;;5.22;2.67;;;;;;;2.73;66.24;99019.75;5953433;23;20231;-88
2022/01/14 03:39:17;;;;;;;7.80;3.08;;;;;;;2.61;66.02;99021.72;5952353;23;20179;-88
2022/01/14 03:41:43;;;;;;;5.57;2.88;;;;;;;2.51;66.79;99017.63;5953075;23;20283;-87
2022/01/14 03:44:08;;;;;;;4.90;2.42;;;;;;;2.59;66.47;99017.69;5952995;23;20761;-87
2022/01/14 03:46:34;;;;;;;7.55;2.95;;;;;;;2.59;66.80;99028.78;5953039;23;20183;-87
2022/01/14 03:48:59;;;;;;;4.22;2.25;;;;;;;2.58;66.93;99034.06;5952337;23;20191;-88
2022/01/14 03:51:26;;;;;;;3.53;2.40;;;;;;;2.56;67.11;99038.56;5950655;23;20648;-87
2022/01/14 03:53:52;;;;;;;4.72;2.40;;;;;;;2.58;67.20;99042.59;5950987;23;20267;-88
2022/01/14 03:56:17;;;;;;;7.15;2.38;;;;;;;2.55;67.02;99048.03;5951362;23;20227;-88
2022/01/14 03:58:43;;;;;;;3.80;1.70;;;;;;;2.54;66.93;99043.03;5949915;23;20517;-87
2022/01/14 04:01:10;;;;;;;3.90;1.75;;;;;;;2.58;67.66;99041.78;5998347;23;20179;-87
2022/01/14 04:03:35;;;;;;;3.83;1.38;;;;;;;2.54;67.50;99041.28;5950873;23;20277;-87
2022/01/14 04:06:01;;;;;;;3.35;1.27;;;;;;;2.49;67.42;99038.34;5975316;23;20678;-87
2022/01/14 04:08:26;;;;;;;2.42;1.20;;;;;;;2.57;67.30;99056.41;6008482;23;20188;-87
2022/01/14 04:10:57;;;;;;;2.88;1.30;;;;;;;2.52;67.55;99043.19;5986277;23;20084;-87
2022/01/14 04:13:35;;;;;;;5.35;1.52;;;;;;;2.51;67.80;99040.75;5984215;23;20160;-87
2022/01/14 04:16:00;;;;;;;4.43;1.27;;;;;;;2.50;68.18;99039.13;5954640;23;20167;-87
2022/01/14 04:18:26;;;;;;;3.03;1.02;;;;;;;2.58;67.82;99042.59;5951767;23;20595;-87
2022/01/14 04:20:54;;;;;;;2.75;0.73;;;;;;;2.62;67.79;99036.22;5964904;23;20177;-87
2022/01/14 04:23:22;;;;;;;1.50;0.43;;;;;;;2.65;68.14;99032.53;6038412;23;20190;-87
2022/01/14 04:25:51;;;;;;;2.78;0.50;;;;;;;2.72;68.21;99038.69;5980851;23;20171;-87
2022/01/14 04:28:18;;;;;;;1.33;0.65;;;;;;;2.76;68.26;99034.88;5980527;23;20049;-87
2022/01/14 04:30:43;;;;;;;2.80;0.80;;;;;;;2.77;68.09;99031.34;6004515;23;20225;-87
2022/01/14 04:33:08;;;;;;;3.38;0.60;;;;;;;2.81;67.81;99031.84;6002580;23;20231;-87
2022/01/14 04:35:35;;;;;;;3.33;1.08;;;;;;;2.77;67.87;99008.19;5978890;23;20205;-88
2022/01/14 04:38:00;;;;;;;3.15;1.20;;;;;;;2.89;67.64;99019.06;6011943;23;20590;-87
2022/01/14 04:40:26;;;;;;;1.35;0.40;;;;;;;3.00;67.47;99018.03;6003279;23;20108;-88
2022/01/14 04:42:53;;;;;;;2.50;0.63;;;;;;;3.04;66.76;99011.63;5976034;23;20152;-87
2022/01/14 04:48:04;;;;;;;1.13;0.63;;;;;;;3.03;66.80;99007.41;6004615;23;20582;-88
2022/01/14 04:50:30;;;;;;;2.17;1.05;;;;;;;3.09;66.32;99008.59;6001674;23;20221;-88
2022/01/14 04:52:55;;;;;;;2.83;0.70;;;;;;;3.03;66.98;99002.25;6002235;23;20269;-88
2022/01/14 04:55:23;;;;;;;3.67;1.25;;;;;;;2.89;66.72;99003.63;5978475;23;20656;-87
2022/01/14 04:57:49;;;;;;;4.38;1.13;;;;;;;2.91;67.11;99000.91;6001527;23;20138;-88
2022/01/14 05:00:18;;;;;;;2.35;0.82;;;;;;;2.75;67.20;98986.94;5978595;23;20234;-88
2022/01/14 05:02:44;;;;;;;3.33;1.30;;;;;;;2.77;67.05;98992.75;5978463;23;20631;-87
2022/01/14 05:05:10;;;;;;;2.78;1.25;;;;;;;2.79;67.57;99000.31;6001180;23;20274;-88
2022/01/14 05:07:36;;;;;;;3.17;0.98;;;;;;;2.81;67.18;98996.66;6011698;23;20144;-88
2022/01/14 05:12:33;;;;;;;3.80;1.48;;;;;;;2.70;66.88;98996.09;6001909;23;20710;-87
2022/01/14 05:14:59;;;;;;;2.42;1.13;;;;;;;2.80;66.83;98984.75;6011557;23;20234;-88
2022/01/14 05:17:25;;;;;;;2.22;0.98;;;;;;;2.81;66.66;98996.66;5979029;23;20273;-88
2022/01/14 05:19:50;;;;;;;3.33;0.82;;;;;;;2.76;67.08;99000.63;6011511;23;20478;-88
2022/01/14 05:22:17;;;;;;;1.85;0.70;;;;;;;2.66;67.45;98995.56;5977956;23;20170;-87
2022/01/14 05:24:45;;;;;;;2.10;1.00;;;;;;;2.67;67.53;98997.16;5978742;23;20155;-87
2022/01/14 05:27:11;;;;;;;4.22;1.55;;;;;;;2.67;67.24;99001.50;5979302;23;20270;-87
2022/01/14 05:29:36;;;;;;;3.53;1.08;;;;;;;2.64;67.57;98997.50;5978169;23;20690;-88
2022/01/14 05:32:03;;;;;;;3.53;2.03;;;;;;;2.68;67.92;98992.84;5978976;23;20303;-87
2022/01/14 05:34:33;;;;;;;2.10;1.27;;;;;;;2.70;67.32;99004.59;6013656;23;20646;-87
2022/01/14 05:36:59;;;;;;;5.93;1.77;;;;;;;2.67;67.53;98986.88;6025871;23;20235;-88
2022/01/14 05:39:25;;;;;;;9.70;5.03;;;;;;;2.70;67.09;99003.81;5978374;23;20330;-87
2022/01/14 05:41:51;;;;;;;22.60;9.85;;;;;;;2.59;67.87;98992.78;5978585;23;20190;-87
2022/01/14 05:44:16;;;;;;;16.05;7.80;;;;;;;2.68;67.76;99001.38;5978690;23;20170;-88
2022/01/14 05:46:42;;;;;;;9.07;4.13;;;;;;;2.64;67.67;98997.50;6012225;23;20281;-87
2022/01/14 05:49:07;;;;;;;8.95;3.47;;;;;;;2.61;67.75;99002.94;6011788;23;20172;-87
2022/01/14 05:51:33;;;;;;;4.03;1.40;;;;;;;2.68;67.62;99016.81;6036492;23;20218;-87
2022/01/14 05:53:58;;;;;;;3.85;1.42;;;;;;;2.60;67.22;99012.41;5978939;23;20186;-87
2022/01/14 05:56:23;;;;;;;1.83;0.88;;;;;;;2.50;67.57;99000.56;6002992;23;20602;-87
2022/01/14 05:58:49;;;;;;;3.88;1.80;;;;;;;2.46;67.37;99004.41;6012596;23;20534;-87
2022/01/14 06:01:14;;;;;;;2.67;0.82;;;;;;;2.56;67.88;99018.00;5978615;23;20171;-87
2022/01/14 06:03:40;;;;;;;2.08;0.95;;;;;;;2.46;67.79;98999.25;6035282;23;20174;-87
2022/01/14 06:06:05;;;;;;;3.47;0.80;;;;;;;2.57;67.52;99014.44;5977837;23;20594;-87
2022/01/14 06:08:30;;;;;;;1.80;0.65;;;;;;;2.55;67.08;99011.22;6011244;23;20143;-87
2022/01/14 06:10:56;;;;;;;5.95;0.93;;;;;;;2.52;67.16;99011.50;6035113;23;20609;-88
2022/01/14 06:13:21;;;;;;;1.40;0.68;;;;;;;2.46;68.06;99004.41;5977557;23;20172;-87
2022/01/14 06:15:46;;;;;;;1.73;0.60;;;;;;;2.58;67.50;99005.78;6002351;23;20571;-87
2022/01/14 06:18:12;;;;;;;1.70;0.50;;;;;;;2.77;66.69;98992.75;5978306;23;20461;-87
2022/01/14 06:20:37;;;;;;;3.22;0.82;;;;;;;2.85;66.11;98994.59;6009911;23;20278;-87
2022/01/14 06:23:02;;;;;;;4.97;1.30;;;;;;;2.83;65.65;98998.25;6024456;23;20293;-86
2022/01/14 06:25:28;;;;;;;2.58;0.90;;;;;;;2.62;66.17;98986.53;5977769;23;20166;-86
2022/01/14 06:27:53;;;;;;;3.00;1.25;;;;;;;2.70;65.97;98998.66;6010042;23;20262;-86
2022/01/14 06:30:19;;;;;;;4.18;2.05;;;;;;;2.56;65.75;98985.34;6009673;23;20162;-87
2022/01/14 06:32:45;;;;;;;1.33;0.93;;;;;;;2.45;66.29;98993.31;6010518;23;20170;-87
2022/01/14 06:35:14;;;;;;;2.42;1.10;;;;;;;2.29;66.75;99000.84;6010981;23;20163;-86
2022/01/14 06:37:40;;;;;;;2.63;1.40;;;;;;;2.30;67.10;98997.34;6011818;23;20234;-87
2022/01/14 06:40:07;;;;;;;2.78;1.55;;;;;;;2.32;67.23;99003.16;6026617;23;20235;-86
2022/01/14 06:42:33;;;;;;;3.88;1.80;;;;;;;2.38;66.85;99011.09;5978769;23;20316;-87
2022/01/14 06:44:58;;;;;;;3.97;1.42;;;;;;;2.44;66.56;99009.69;6011530;23;20486;-86
2022/01/14 06:47:24;;;;;;;1.73;1.02;;;;;;;2.31;66.81;99010.03;5978394;23;20281;-86
2022/01/14 06:49:49;;;;;;;1.52;0.95;;;;;;;2.29;67.04;99017.06;5978139;23;20655;-86
2022/01/14 06:52:15;;;;;;;3.20;0.90;;;;;;;2.24;67.05;99009.00;5978766;23;20174;-86
2022/01/14 06:54:41;;;;;;;2.25;0.90;;;;;;;2.28;67.20;99009.50;5978247;23;20159;-86
2022/01/14 06:57:06;;;;;;;5.30;0.90;;;;;;;2.29;67.22;99008.56;5972462;23;20578;-86
2022/01/14 06:59:31;;;;;;;1.77;0.98;;;;;;;2.35;66.83;99013.94;5971491;23;20244;-86
2022/01/14 07:01:57;;;;;;;1.60;0.70;;;;;;;2.32;66.84;99016.78;6037111;23;20444;-86
2022/01/14 07:04:22;;;;;;;1.55;0.52;;;;;;;2.40;66.88;99011.75;5980812;23;20241;-86
2022/01/14 07:06:48;;;;;;;3.33;0.98;;;;;;;2.37;67.06;99013.78;5978167;23;20264;-86
2022/01/14 07:09:13;;;;;;;2.55;1.00;;;;;;;2.33;67.06;99013.28;6013608;23;20242;-87
2022/01/14 07:11:38;;;;;;;3.72;1.02;;;;;;;2.33;67.62;99005.56;5979057;23;20170;-86
2022/01/14 07:14:04;;;;;;;2.20;0.93;;;;;;;2.39;66.89;99009.31;5977998;23;20338;-86
2022/01/14 07:16:30;;;;;;;2.83;1.00;;;;;;;2.39;66.94;99010.13;5979805;23;20178;-87
2022/01/14 07:18:56;;;;;;;3.40;1.30;;;;;;;2.46;66.87;98997.47;6012146;23;20222;-87
2022/01/14 07:21:21;;;;;;;2.95;1.20;;;;;;;2.44;66.66;98992.47;6036902;23;20316;-86
2022/01/14 07:23:47;;;;;;;2.90;1.08;;;;;;;2.39;66.55;98988.75;6012515;23;20135;-86
2022/01/14 07:26:12;;;;;;;2.30;0.88;;;;;;;2.32;66.88;99006.50;6013413;23;20202;-86
2022/01/14 07:28:38;;;;;;;3.67;1.10;;;;;;;2.29;67.57;99008.56;6002685;23;20178;-87
2022/01/14 07:31:03;;;;;;;3.63;1.23;;;;;;;2.39;67.50;99022.97;6013680;23;20246;-87
2022/01/14 07:33:31;;;;;;;3.22;1.20;;;;;;;2.39;67.10;99020.41;5978809;23;20165;-86
2022/01/14 07:35:57;;;;;;;3.33;0.93;;;;;;;2.35;67.11;99002.84;5978812;23;20151;-86
2022/01/14 07:38:22;;;;;;;2.13;0.95;;;;;;;2.44;66.68;99018.19;6003386;23;20087;-87
2022/01/14 07:40:48;;;;;;;3.85;1.00;;;;;;;2.46;66.51;99002.63;6003079;23;20091;-86
2022/01/14 07:43:13;;;;;;;2.17;0.80;;;;;;;2.48;66.94;99018.72;5975128;23;20207;-86
2022/01/14 07:45:38;;;;;;;1.88;0.88;;;;;;;2.53;67.18;99023.41;5976373;23;20273;-86
2022/01/14 07:48:04;;;;;;;1.75;0.95;;;;;;;2.60;66.55;99024.44;6000605;23;20615;-86
2022/01/14 07:50:29;;;;;;;2.17;0.90;;;;;;;2.74;66.72;99026.50;5997982;23;20605;-86
2022/01/14 07:52:55;;;;;;;2.35;0.90;;;;;;;2.64;66.42;99030.94;6026359;23;20181;-86
2022/01/14 07:55:20;;;;;;;1.50;0.50;;;;;;;2.85;65.71;99032.38;6012844;23;20169;-86
2022/01/14 07:57:46;;;;;;;1.50;0.68;;;;;;;2.75;66.00;99035.81;6035409;23;20264;-86
2022/01/14 08:00:12;;;;;;;1.30;0.60;;;;;;;2.65;66.19;99034.28;5978615;23;20308;-86
2022/01/14 08:02:38;;;;;;;2.15;0.70;;;;;;;2.63;66.09;99037.00;6012629;23;20257;-86
2022/01/14 08:05:03;;;;;;;1.50;0.52;;;;;;;2.58;66.73;99042.59;6000884;23;20221;-86
2022/01/14 08:07:30;;;;;;;1.90;0.70;;;;;;;2.55;66.64;99042.06;6011432;23;20190;-87
2022/01/14 08:09:55;;;;;;;2.95;1.05;;;;;;;2.47;66.30;99034.28;6002081;23;20673;-86
2022/01/14 08:12:21;;;;;;;2.70;1.17;;;;;;;2.47;66.06;99035.09;6012090;23;20258;-86
2022/01/14 08:14:46;;;;;;;3.20;0.82;;;;;;;2.43;66.81;99024.31;5978639;23;20155;-86
2022/01/14 08:17:15;;;;;;;2.95;1.48;;;;;;;2.52;66.74;99047.50;5978559;23;20193;-86
2022/01/14 08:19:40;;;;;;;2.47;1.10;;;;;;;2.62;66.78;99038.78;6001954;23;20178;-87
2022/01/14 08:22:06;;;;;;;2.00;1.40;;;;;;;2.60;66.85;99047.59;6011892;23;20085;-86
2022/01/14 08:24:33;;;;;;;2.50;1.20;;;;;;;2.61;66.91;99037.16;6025280;23;20165;-86
2022/01/14 08:26:58;;;;;;;6.18;3.30;;;;;;;2.70;67.42;99034.66;5977566;23;20173;-87
2022/01/14 08:29:24;;;;;;;5.28;3.60;;;;;;;2.80;67.59;99032.81;6011115;23;20170;-86
2022/01/14 08:31:50;;;;;;;3.03;2.10;;;;;;;2.92;67.84;99034.19;5978928;23;20590;-87
2022/01/14 08:34:16;;;;;;;3.13;1.52;;;;;;;2.93;67.58;99019.56;6036567;23;20323;-87
2022/01/14 08:36:42;;;;;;;4.50;1.60;;;;;;;3.08;67.17;99023.22;6010857;23;20271;-87
2022/01/14 08:39:07;;;;;;;1.83;1.10;;;;;;;3.24;66.68;99034.56;5999262;23;20170;-87
2022/01/14 08:41:32;;;;;;;2.42;1.15;;;;;;;3.10;66.53;99031.63;6034212;23;20555;-87
2022/01/14 08:43:58;;;;;;;3.58;1.38;;;;;;;3.11;66.82;99025.50;6008344;23;20173;-87
2022/01/14 08:46:25;;;;;;;2.33;1.45;;;;;;;3.11;66.48;99029.84;6007339;23;20294;-87
2022/01/14 08:48:51;;;;;;;3.33;1.38;;;;;;;3.06;66.82;99026.91;5997958;23;20688;-87
2022/01/14 08:51:17;;;;;;;2.33;1.10;;;;;;;3.13;67.16;99020.19;5973961;23;20227;-87
2022/01/14 08:53:42;;;;;;;1.83;0.95;;;;;;;3.23;66.54;99033.78;5998049;23;20156;-87
2022/01/14 08:56:08;;;;;;;1.48;0.98;;;;;;;3.24;66.48;99019.97;6007976;23;20357;-87
2022/01/14 08:58:33;;;;;;;4.15;1.50;;;;;;;3.38;66.84;99016.03;5972842;23;20162;-87
2022/01/14 09:00:58;;;;;;;2.40;1.17;;;;;;;3.35;66.75;99013.75;5974324;23;20205;-88
2022/01/14 09:03:24;;;;;;;3.15;1.30;;;;;;;3.48;66.58;99003.84;5997846;23;20297;-87
2022/01/14 09:05:49;;;;;;;3.08;1.23;;;;;;;3.50;67.06;99014.78;5972961;23;20677;-87
2022/01/14 09:08:14;;;;;;;3.35;1.52;;;;;;;3.73;66.53;99016.81;6006400;23;20170;-87
2022/01/14 09:10:41;;;;;;;4.65;1.50;;;;;;;3.79;66.86;99023.13;5973485;23;20316;-88
2022/01/14 09:13:06;;;;;;;3.90;1.52;;;;;;;3.55;66.85;98989.38;6030055;23;20336;-88
2022/01/14 09:15:33;;;;;;;3.35;1.63;;;;;;;3.70;66.78;98997.34;5973491;23;20162;-88
2022/01/14 09:17:59;;;;;;;4.00;1.70;;;;;;;3.73;67.05;98998.78;6005712;23;20147;-88
2022/01/14 09:20:30;;;;;;;4.85;1.40;;;;;;;3.87;66.96;99013.69;6001744;23;20593;-87
2022/01/14 09:23:16;;;;;;;3.08;1.60;;;;;;;3.86;66.89;99012.06;5978712;23;20221;-88
2022/01/14 09:28:46;;;;;;;4.65;1.83;;;;;;;3.91;67.17;99002.09;6047415;23;20275;-88
2022/01/14 09:31:16;;;;;;;4.18;2.03;;;;;;;3.90;67.28;99007.41;5978205;23;20226;-88
2022/01/14 09:33:46;;;;;;;3.28;1.88;;;;;;;4.03;67.65;99009.53;6009998;23;20223;-88
2022/01/14 09:36:12;;;;;;;6.82;2.72;;;;;;;4.23;67.27;99007.47;5977603;23;20466;-88
2022/01/14 09:38:47;;;;;;;2.83;2.00;;;;;;;4.35;67.47;99044.09;5995701;23;20368;-88
2022/01/14 09:41:17;;;;;;;6.30;2.03;;;;;;;4.32;66.98;99007.34;5996326;23;20196;-88
2022/01/14 09:43:44;;;;;;;3.22;2.00;;;;;;;4.54;67.64;99028.34;6000739;23;20112;-88
2022/01/14 09:46:13;;;;;;;5.18;2.20;;;;;;;4.59;67.21;99022.69;5978836;23;20199;-88
2022/01/14 09:48:46;;;;;;;4.30;2.00;;;;;;;4.79;66.97;99015.47;5978280;23;20178;-88
2022/01/14 09:51:20;;;;;;;5.00;2.08;;;;;;;4.77;66.83;99022.56;6035828;23;20230;-88
2022/01/14 09:53:48;;;;;;;4.15;2.25;;;;;;;4.99;66.22;99024.50;6035399;23;20079;-88
2022/01/14 09:56:18;;;;;;;5.22;2.28;;;;;;;5.13;66.75;99019.63;6023497;23;20086;-88
2022/01/14 09:58:51;;;;;;;5.78;2.10;;;;;;;5.22;66.68;99023.81;5977017;23;20313;-88
2022/01/14 10:01:21;;;;;;;5.88;2.25;;;;;;;5.38;66.98;99021.22;5977387;23;20598;-88
2022/01/14 10:03:56;;;;;;;;;;;;;;;5.46;67.28;99037.66;6002811;23;20163;-88
2022/01/14 10:06:46;;;;;;;5.68;2.65;;;;;;;5.41;67.37;99033.78;5997106;23;20073;-89
2022/01/14 10:09:39;;;;;;;6.32;3.92;;;;;;;5.76;66.86;99039.50;5975056;23;20578;-89
2022/01/14 10:12:33;;;;;;;6.28;3.53;;;;;;;5.74;66.82;99031.13;5977223;23;20487;-89
2022/01/14 10:15:09;;;;;;;5.18;3.00;;;;;;;5.98;66.32;99021.66;5994843;23;20186;-89
2022/01/14 10:17:40;;;;;;;6.18;3.83;;;;;;;6.11;65.47;98997.84;6034832;23;20245;-89
2022/01/14 10:20:08;;;;;;;6.55;3.72;;;;;;;6.26;64.56;98987.59;5976684;23;20186;-88
2022/01/14 10:22:35;;;;;;;8.52;4.72;;;;;;;6.25;64.24;98983.38;5975685;23;20326;-88
2022/01/14 10:25:08;;;;;;;7.95;3.75;;;;;;;6.21;64.16;98982.13;6010209;23;20289;-87
2022/01/14 10:27:49;;;;;;;6.35;3.45;;;;;;;6.38;63.97;99015.47;6000283;23;20167;-87
2022/01/14 10:30:23;;;;;;;5.65;3.22;;;;;;;6.65;62.78;99012.53;6034206;23;20140;-87
2022/01/14 10:32:57;;;;;;;5.72;3.15;;;;;;;6.26;63.53;98983.22;5977935;23;20198;-87
2022/01/14 10:35:24;;;;;;;6.07;3.70;;;;;;;6.40;63.70;98983.47;5979200;23;20170;-87
2022/01/14 10:37:49;;;;;;;6.18;3.42;;;;;;;6.43;64.02;98991.69;6011804;23;20261;-87
2022/01/14 10:40:21;;;;;;;5.50;3.13;;;;;;;6.36;64.29;98990.78;5978975;23;20237;-86
2022/01/14 10:42:50;;;;;;;4.60;2.42;;;;;;;6.50;63.99;98981.44;5978860;23;20586;-86
2022/01/14 10:45:22;;;;;;;3.83;2.25;;;;;;;6.79;64.15;98996.28;6013856;23;20269;-86
2022/01/14 10:48:16;;;;;;;4.80;2.80;;;;;;;6.57;64.21;98988.34;6003588;23;20174;-86
2022/01/14 10:50:53;;;;;;;3.85;2.40;;;;;;;6.65;63.37;98966.78;5978066;23;20257;-86
2022/01/14 10:53:24;;;;;;;5.28;3.42;;;;;;;7.03;63.62;98991.88;6037543;23;20182;-86
2022/01/14 10:56:20;;;;;;;3.90;2.13;;;;;;;6.86;63.25;98960.94;5980308;23;20273;-86
2022/01/14 10:58:48;;;;;;;2.92;2.08;;;;;;;7.16;62.76;98970.53;6019736;23;20147;-86
2022/01/14 11:01:21;;;;;;;5.70;2.08;;;;;;;7.29;62.04;98984.47;5980188;23;20190;-86
2022/01/14 11:03:48;;;;;;;2.17;1.40;;;;;;;7.53;60.98;98984.38;5980021;23;20175;-85
2022/01/14 11:06:27;;;;;;;2.55;1.52;;;;;;;7.51;60.83;98966.41;6026842;23;20595;-85
2022/01/14 11:09:08;;;;;;;4.07;1.73;;;;;;;7.64;60.66;98969.19;5978918;23;20694;-85
2022/01/14 11:11:38;;;;;;;2.22;1.05;;;;;;;7.88;59.64;98962.06;6002949;23;20262;-85
2022/01/14 11:14:05;;;;;;;1.00;0.77;;;;;;;8.09;58.82;98960.47;6012321;23;20167;-85
2022/01/14 11:16:31;;;;;;;1.65;1.00;;;;;;;8.35;57.97;98968.53;6012086;23;20575;-85
2022/01/14 11:18:58;;;;;;;1.73;0.80;;;;;;;8.49;58.44;98969.50;5978044;23;20079;-85
2022/01/14 11:24:12;;;;;;;1.20;0.60;;;;;;;8.59;56.95;98953.63;6031600;23;20597;-85
2022/01/14 11:26:39;;;;;;;1.95;1.02;;;;;;;8.84;57.27;98961.00;6021865;23;20236;-85
2022/01/14 11:29:17;;;;;;;4.93;0.80;;;;;;;8.81;56.18;98952.59;6006623;23;20332;-84
2022/01/14 11:31:43;;;;;;;1.00;0.80;;;;;;;9.12;55.67;98946.19;6031547;23;20155;-84
2022/01/14 11:34:32;;;;;;;2.30;1.10;;;;;;;8.97;56.66;98942.91;5973905;23;20261;-84
2022/01/14 11:37:00;;;;;;;2.55;1.00;;;;;;;9.13;56.20;98942.63;6031352;23;20577;-85
2022/01/14 11:39:29;;;;;;;3.17;1.17;;;;;;;9.23;55.74;98937.06;6007020;23;20335;-84
2022/01/14 11:42:00;;;;;;;1.90;0.65;;;;;;;9.28;54.93;98939.88;5970538;23;20419;-84
2022/01/14 11:44:40;;;;;;;2.80;0.77;;;;;;;9.42;54.46;98935.53;5973226;23;20193;-84
2022/01/14 11:47:06;;;;;;;0.88;0.40;;;;;;;9.70;53.77;98926.88;6032524;23;20139;-84
2022/01/14 11:49:37;;;;;;;1.23;0.63;;;;;;;9.61;52.79;98928.03;6006467;23;20113;-84
2022/01/14 11:52:05;;;;;;;2.47;0.73;;;;;;;9.64;53.86;98927.66;5997131;23;20533;-84
2022/01/14 11:54:41;;;;;;;0.68;0.50;;;;;;;9.59;54.19;98925.63;5973006;23;20344;-84
2022/01/14 11:57:07;;;;;;;0.90;0.80;;;;;;;9.77;53.40;98922.50;6031640;23;20257;-84
2022/01/14 11:59:32;;;;;;;1.30;0.50;;;;;;;9.85;53.07;98916.31;6020389;23;20175;-84
2022/01/14 12:01:58;;;;;;;1.98;0.90;;;;;;;9.83;52.87;98911.28;6020926;23;20248;-83
2022/01/14 12:05:03;;;;;;;0.95;0.55;;;;;;;9.63;52.71;98915.63;5972013;23;20680;-83
2022/01/14 12:07:29;;;;;;;1.67;0.60;;;;;;;9.81;52.35;98908.09;6032004;23;20205;-83
2022/01/14 12:10:09;;;;;;;1.05;0.35;;;;;;;9.68;52.15;98908.88;6006373;23;20170;-83
2022/01/14 12:12:35;;;;;;;1.02;0.50;;;;;;;9.87;51.93;98896.91;5973808;23;20166;-83
2022/01/14 12:15:03;;;;;;;1.10;0.60;;;;;;;9.94;51.81;98896.94;6020846;23;20636;-83
2022/01/14 12:17:31;;;;;;;2.15;0.50;;;;;;;9.88;51.44;98895.09;5996712;23;20266;-83